createdAt,value
2023-09-14T00:00:20.828Z,99.9
2023-09-14T00:02:24.073Z,99.9
2023-09-14T00:04:27.139Z,99.9
2023-09-14T00:06:33.424Z,99.9
2023-09-14T00:10:39.643Z,99.9
2023-09-14T00:12:42.810Z,99.9
2023-09-14T00:14:45.889Z,99.9
2023-09-14T00:16:49.142Z,99.9
2023-09-14T00:18:52.160Z,99.9
2023-09-14T00:23:01.605Z,99.9
2023-09-14T00:26:07.887Z,99.9
2023-09-14T00:28:11.040Z,99.9
2023-09-14T00:30:14.160Z,99.9
2023-09-14T00:32:17.284Z,99.9
2023-09-14T00:34:23.616Z,99.9
2023-09-14T00:36:26.753Z,99.9
2023-09-14T00:38:29.872Z,99.9
2023-09-14T00:40:32.971Z,99.9
2023-09-14T00:42:36.142Z,99.9
2023-09-14T00:44:39.214Z,99.9
2023-09-14T00:46:42.415Z,99.9
2023-09-14T00:48:49.015Z,99.9
2023-09-14T00:52:54.898Z,99.9
2023-09-14T00:54:58.065Z,99.9
2023-09-14T00:57:01.125Z,99.9
2023-09-14T01:01:07.404Z,99.9
2023-09-14T01:03:13.940Z,99.9
2023-09-14T01:05:16.822Z,99.9
2023-09-14T01:09:23.036Z,99.9
2023-09-14T01:13:29.291Z,99.9
2023-09-14T01:15:32.424Z,99.9
2023-09-14T01:17:38.698Z,99.9
2023-09-14T01:22:48.094Z,99.9
2023-09-14T01:24:51.237Z,99.9
2023-09-14T01:26:54.340Z,99.9
2023-09-14T01:33:06.932Z,99.9
2023-09-14T01:35:10.027Z,99.9
2023-09-14T01:37:13.161Z,99.9
2023-09-14T01:39:16.240Z,99.9
2023-09-14T01:41:19.374Z,99.9
2023-09-14T01:43:22.518Z,99.9
2023-09-14T01:45:28.844Z,99.9
2023-09-14T01:47:31.956Z,99.9
2023-09-14T01:49:35.081Z,99.9
2023-09-14T01:51:38.203Z,99.9
2023-09-14T01:53:41.313Z,99.9
2023-09-14T01:59:53.851Z,99.9
2023-09-14T02:04:00.162Z,99.9
2023-09-14T02:06:03.245Z,99.9
2023-09-14T02:08:06.320Z,99.9
2023-09-14T02:12:12.560Z,99.9
2023-09-14T02:14:18.913Z,99.9
2023-09-14T02:27:01.695Z,99.9
2023-09-14T02:29:04.830Z,99.9
2023-09-14T02:31:08.043Z,99.9
2023-09-14T02:35:14.163Z,99.9
2023-09-14T02:37:17.278Z,99.9
2023-09-14T02:39:20.385Z,99.9
2023-09-14T02:47:36.069Z,99.9
2023-09-14T02:49:39.190Z,99.9
2023-09-14T02:51:42.305Z,99.9
2023-09-14T02:53:45.399Z,99.9
2023-09-14T02:55:51.726Z,99.9
2023-09-14T02:57:54.920Z,99.9
2023-09-14T02:59:57.938Z,99.9
2023-09-14T03:02:01.118Z,99.9
2023-09-14T03:04:05.789Z,99.9
2023-09-14T03:06:08.808Z,99.9
2023-09-14T03:08:11.922Z,99.9
2023-09-14T03:10:18.303Z,99.9
2023-09-14T03:12:21.353Z,99.9
2023-09-14T03:14:24.464Z,99.9
2023-09-14T03:15:27.632Z,99.9
2023-09-14T03:17:30.769Z,99.9
2023-09-14T03:19:33.863Z,99.9
2023-09-14T03:21:36.999Z,99.9
2023-09-14T03:36:01.996Z,99.9
2023-09-14T03:38:08.360Z,99.9
2023-09-14T03:44:17.680Z,99.9
2023-09-14T03:48:23.914Z,99.9
2023-09-14T04:06:58.429Z,99.9
2023-09-14T04:09:01.506Z,99.9
2023-09-14T04:11:04.624Z,99.9
2023-09-14T04:12:07.771Z,99.9
2023-09-14T04:14:10.876Z,99.9
2023-09-14T04:16:14.080Z,99.9
2023-09-14T04:18:17.097Z,99.9
2023-09-14T04:20:23.408Z,99.9
2023-09-14T04:22:26.552Z,99.9
2023-09-14T04:24:29.645Z,99.9
2023-09-14T04:26:32.737Z,99.9
2023-09-14T04:28:35.863Z,99.9
2023-09-14T04:30:38.975Z,99.9
2023-09-14T04:32:42.075Z,99.9
2023-09-14T04:34:48.398Z,99.9
2023-09-14T04:36:51.561Z,99.9
2023-09-14T04:43:00.870Z,99.9
2023-09-14T04:45:03.970Z,99.9
2023-09-14T04:47:07.137Z,99.9
2023-09-14T04:49:13.443Z,99.9
2023-09-14T04:51:16.477Z,99.9
2023-09-14T04:53:19.640Z,99.9
2023-09-14T04:55:22.723Z,99.9
2023-09-14T04:57:25.827Z,99.9
2023-09-14T04:59:28.931Z,99.9
2023-09-14T05:01:32.150Z,99.9
2023-09-14T05:03:38.403Z,99.9
2023-09-14T05:05:41.435Z,99.9
2023-09-14T05:07:44.548Z,99.9
2023-09-14T05:19:06.719Z,99.9
2023-09-14T05:21:09.536Z,99.9
2023-09-14T05:23:12.660Z,99.9
2023-09-14T05:25:15.785Z,99.9
2023-09-14T05:27:18.861Z,99.9
2023-09-14T05:29:21.943Z,99.9
2023-09-14T05:31:28.311Z,99.9
2023-09-14T05:33:31.357Z,99.9
2023-09-14T05:35:34.474Z,99.9
2023-09-14T05:37:37.571Z,99.9
2023-09-14T05:39:40.685Z,99.9
2023-09-14T05:45:53.217Z,99.9
2023-09-14T05:47:56.359Z,99.9
2023-09-14T05:49:59.415Z,99.9
2023-09-14T05:52:02.548Z,99.9
2023-09-14T05:54:05.620Z,99.9
2023-09-14T05:56:08.714Z,99.9
2023-09-14T06:00:18.145Z,99.9
2023-09-14T06:02:21.250Z,99.9
2023-09-14T06:04:24.450Z,99.9
2023-09-14T06:06:54.145Z,99.9
2023-09-14T06:08:57.231Z,99.9
2023-09-14T06:11:00.317Z,99.9
2023-09-14T06:13:06.682Z,99.9
2023-09-14T06:15:09.758Z,99.9
2023-09-14T06:17:12.863Z,99.9
2023-09-14T06:19:15.982Z,99.9
2023-09-14T06:21:19.031Z,99.9
2023-09-14T06:23:22.132Z,99.9
2023-09-14T06:25:25.330Z,99.9
2023-09-14T06:27:31.578Z,99.9
2023-09-14T06:29:34.662Z,99.9
2023-09-14T06:31:37.862Z,99.9
2023-09-14T06:33:40.959Z,99.9
2023-09-14T06:41:56.496Z,99.9
2023-09-14T06:43:59.652Z,99.9
2023-09-14T06:46:02.955Z,99.9
2023-09-14T06:48:05.825Z,99.9
2023-09-14T06:50:08.942Z,99.9
2023-09-14T06:54:15.147Z,99.9
2023-09-14T06:56:21.495Z,99.9
2023-09-14T06:58:24.567Z,99.9
2023-09-14T07:00:27.510Z,99.9
2023-09-14T07:09:45.727Z,99.9
2023-09-14T07:17:57.789Z,99.9
2023-09-14T07:20:00.758Z,99.9
2023-09-14T07:22:03.770Z,99.9
2023-09-14T07:24:09.862Z,99.9
2023-09-14T07:28:15.913Z,99.9
2023-09-14T07:30:18.856Z,99.9
2023-09-14T07:32:21.854Z,99.9
2023-09-14T07:34:24.876Z,99.9
2023-09-14T07:55:00.889Z,99.9
2023-09-14T07:57:03.855Z,99.9
2023-09-14T07:58:06.895Z,99.9
2023-09-14T08:00:09.822Z,99.9
2023-09-14T08:02:12.774Z,99.6
2023-09-14T08:04:15.811Z,99.2
2023-09-14T08:10:27.736Z,92.9
2023-09-14T08:16:36.661Z,74.1
2023-09-14T08:18:39.556Z,63.3
2023-09-14T08:20:45.633Z,82.7
2023-09-14T08:22:48.553Z,90.9
2023-09-14T08:26:54.435Z,71.7
2023-09-14T08:28:57.382Z,77.4
2023-09-14T08:31:00.405Z,72.9
2023-09-14T08:37:12.401Z,77.9
2023-09-14T08:39:17.196Z,93.5
2023-09-14T08:41:18.015Z,92.4
2023-09-14T08:43:20.992Z,79.1
2023-09-14T08:45:23.867Z,73.8
2023-09-14T08:47:26.770Z,66.4
2023-09-14T08:49:32.817Z,64
2023-09-14T08:51:35.690Z,61.6
2023-09-14T08:56:44.503Z,79.9
2023-09-14T09:02:57.924Z,78.8
2023-09-14T09:05:00.845Z,73.5
2023-09-14T09:07:03.697Z,80.9
2023-09-14T09:09:06.511Z,93.2
2023-09-14T09:11:09.414Z,87.6
2023-09-14T09:15:15.165Z,77.6
2023-09-14T09:17:21.160Z,93.9
2023-09-14T09:19:24.167Z,97.5
2023-09-14T09:21:26.935Z,97.2
2023-09-14T09:33:47.335Z,99.9
2023-09-14T09:39:56.047Z,99.9
2023-09-14T09:41:58.806Z,99.9
2023-09-14T09:44:01.663Z,99.9
2023-09-14T09:46:07.722Z,99.9
2023-09-14T09:50:13.418Z,99.9
2023-09-14T09:52:42.611Z,99.9
2023-09-14T09:56:48.194Z,99.9
2023-09-14T09:58:54.193Z,99.9
2023-09-14T10:00:57.120Z,99.9
2023-09-14T10:03:00.029Z,99.9
2023-09-14T10:05:02.802Z,99.9
2023-09-14T10:07:05.679Z,99.9
2023-09-14T10:15:20.285Z,99.9
2023-09-14T10:19:26.111Z,99.9
2023-09-14T10:25:34.910Z,99.9
2023-09-14T10:31:46.588Z,99.9
2023-09-14T10:33:49.572Z,99.9
2023-09-14T10:35:52.414Z,99.9
2023-09-14T10:37:55.324Z,99.9
2023-09-14T10:39:58.218Z,99.9
2023-09-14T10:42:04.211Z,99.9
2023-09-14T10:46:10.136Z,99.9
2023-09-14T10:47:13.026Z,99.9
2023-09-14T10:49:15.923Z,99.9
2023-09-14T10:51:18.770Z,99.9
2023-09-14T10:55:27.739Z,99.9
2023-09-14T10:59:33.437Z,99.9
2023-09-14T11:03:39.215Z,99.9
2023-09-14T11:05:42.472Z,99.9
2023-09-14T11:09:51.065Z,99.9
2023-09-14T11:11:55.073Z,99.9
2023-09-14T11:13:57.215Z,99.9
2023-09-14T11:15:59.753Z,99.9
2023-09-14T11:30:22.798Z,99.9
2023-09-14T11:34:29.333Z,99.9
2023-09-14T11:36:31.601Z,99.5
2023-09-14T11:40:41.036Z,99.5
2023-09-14T11:42:43.718Z,99.2
2023-09-14T11:43:56.183Z,95.6
2023-09-14T11:45:52.944Z,88.6
2023-09-14T11:49:54.012Z,93.6
2023-09-14T11:51:59.866Z,94.8
2023-09-14T11:54:02.678Z,96.7
2023-09-14T11:56:05.431Z,96.3
2023-09-14T11:58:08.181Z,96.8
2023-09-14T12:00:10.939Z,98.9
2023-09-14T12:02:13.663Z,99.1
2023-09-14T12:04:16.502Z,99.2
2023-09-14T12:06:22.329Z,99.7
2023-09-14T12:10:27.846Z,99.9
2023-09-14T12:12:30.678Z,99.9
2023-09-14T12:14:33.276Z,99.9
2023-09-14T12:16:36.156Z,99.9
2023-09-14T12:18:38.853Z,99.9
2023-09-14T12:20:44.786Z,99.9
2023-09-14T12:22:47.615Z,99.9
2023-09-14T12:24:50.470Z,99.9
2023-09-14T12:26:53.238Z,99.9
2023-09-14T12:28:56.078Z,99.6
2023-09-14T12:33:01.754Z,92.6
2023-09-14T12:35:07.736Z,98.1
2023-09-14T12:37:10.540Z,98.5
2023-09-14T12:39:13.472Z,98.7
2023-09-14T12:40:16.306Z,99.3
2023-09-14T12:44:22.189Z,99.4
2023-09-14T12:46:24.877Z,99.6
2023-09-14T12:48:30.774Z,99.6
2023-09-14T12:52:36.416Z,99.9
2023-09-14T12:56:42.068Z,74.1
2023-09-14T12:58:45.535Z,73.5
2023-09-14T13:00:47.729Z,87.7
2023-09-14T13:04:56.536Z,99.8
2023-09-14T13:06:59.419Z,99.8
2023-09-14T13:09:02.152Z,99.8
2023-09-14T13:11:05.010Z,99.8
2023-09-14T13:13:07.846Z,93.9
2023-09-14T13:15:10.665Z,70.6
2023-09-14T13:19:19.486Z,63.1
2023-09-14T13:25:27.972Z,99.6
2023-09-14T13:29:33.600Z,94
2023-09-14T13:33:42.649Z,87
2023-09-14T13:35:45.240Z,88
2023-09-14T13:38:14.319Z,97.8
2023-09-14T13:40:17.147Z,97.7
2023-09-14T13:42:19.997Z,98
2023-09-14T13:44:25.975Z,98.8
2023-09-14T13:46:28.847Z,99.2
2023-09-14T13:50:34.563Z,99.9
2023-09-14T13:54:40.304Z,99.9
2023-09-14T13:58:49.416Z,99.9
2023-09-14T14:02:55.109Z,99.9
2023-09-14T14:04:57.837Z,99.9
2023-09-14T14:07:00.805Z,99.9
2023-09-14T14:09:03.627Z,99.9
2023-09-14T14:15:15.469Z,99.9
2023-09-14T14:19:21.307Z,68.3
2023-09-14T14:21:24.229Z,54.8
2023-09-14T14:32:44.813Z,99
2023-09-14T14:34:47.656Z,99.4
2023-09-14T14:36:50.710Z,99.7
2023-09-14T14:38:53.463Z,99.7
2023-09-14T14:43:02.414Z,99.9
2023-09-14T14:45:05.200Z,99.7
2023-09-14T14:47:08.140Z,99.7
2023-09-14T14:49:10.999Z,99.7
2023-09-14T14:51:13.893Z,99.7
2023-09-14T14:53:18.371Z,99.7
2023-09-14T14:57:27.352Z,99.9
2023-09-14T14:59:30.148Z,99.9
2023-09-14T15:01:33.091Z,83.7
2023-09-14T15:03:37.008Z,59.8
2023-09-14T15:05:38.855Z,64.9
2023-09-14T15:07:41.745Z,65.5
2023-09-14T15:09:47.814Z,57.2
2023-09-14T15:11:50.748Z,47.3
2023-09-14T15:13:53.540Z,55.3
2023-09-14T15:17:59.288Z,53.9
2023-09-14T15:20:02.127Z,52.2
2023-09-14T15:22:05.001Z,46.8
2023-09-14T15:24:10.932Z,45
2023-09-14T15:26:13.780Z,44.5
2023-09-14T15:28:16.568Z,49.2
2023-09-14T15:29:19.572Z,48.4
2023-09-14T15:31:22.413Z,47.9
2023-09-14T15:35:27.990Z,55.2
2023-09-14T15:37:33.943Z,51.4
2023-09-14T15:39:36.754Z,55.9
2023-09-14T15:41:39.574Z,82.9
2023-09-14T15:43:42.579Z,91.2
2023-09-14T15:45:45.237Z,65.1
2023-09-14T15:47:48.032Z,53.9
2023-09-14T15:51:58.559Z,53.5
2023-09-14T15:53:59.632Z,54.9
2023-09-14T15:56:02.449Z,74.3
2023-09-14T15:58:05.309Z,69.1
2023-09-14T16:00:08.112Z,61.9
2023-09-14T16:02:10.915Z,60.9
2023-09-14T16:04:13.829Z,61.3
2023-09-14T16:06:19.718Z,58.3
2023-09-14T16:08:22.550Z,57
2023-09-14T16:14:31.030Z,89.3
2023-09-14T16:20:42.745Z,99.8
2023-09-14T16:25:51.447Z,99.8
2023-09-14T16:27:54.362Z,99.9
2023-09-14T16:29:57.178Z,99.9
2023-09-14T16:32:00.179Z,99.9
2023-09-14T16:34:06.146Z,99.9
2023-09-14T16:36:09.002Z,99.9
2023-09-14T16:38:11.929Z,99.9
2023-09-14T16:40:14.823Z,99.9
2023-09-14T16:42:17.745Z,99.9
2023-09-14T16:44:20.667Z,99.9
2023-09-14T16:46:23.636Z,99.9
2023-09-14T16:48:29.694Z,99.9
2023-09-14T16:50:32.573Z,99.9
2023-09-14T16:52:35.491Z,99.9
2023-09-14T16:54:38.486Z,99.9
2023-09-14T16:56:41.362Z,99.9
2023-09-14T16:58:44.414Z,99.9
2023-09-14T17:02:53.356Z,99.9
2023-09-14T17:04:56.421Z,99.9
2023-09-14T17:06:59.205Z,99.9
2023-09-14T17:09:02.136Z,99.9
2023-09-14T17:11:05.098Z,99.9
2023-09-14T17:13:08.056Z,99.9
2023-09-14T17:15:10.999Z,99.9
2023-09-14T17:17:17.072Z,99.9
2023-09-14T17:23:52.301Z,99.9
2023-09-14T17:25:55.291Z,99.9
2023-09-14T17:27:58.244Z,99.9
2023-09-14T17:30:04.318Z,99.9
2023-09-14T17:32:07.274Z,99.9
2023-09-14T17:34:10.278Z,99.9
2023-09-14T17:38:16.186Z,99.9
2023-09-14T17:42:22.147Z,99.9
2023-09-14T17:44:28.251Z,99.9
2023-09-14T17:46:31.270Z,99.9
2023-09-14T17:50:37.232Z,99.9
2023-09-14T17:52:40.190Z,99.9
2023-09-14T17:56:46.157Z,99.9
2023-09-14T18:05:01.223Z,99.9
2023-09-14T18:07:04.211Z,99.9
2023-09-14T18:09:07.203Z,99.9
2023-09-14T18:11:10.184Z,99.9
2023-09-14T18:13:16.325Z,99.9
2023-09-14T18:15:19.324Z,99.9
2023-09-14T18:17:22.280Z,99.9
2023-09-14T18:18:25.325Z,99.9
2023-09-14T18:32:49.442Z,99.9
2023-09-14T18:51:19.440Z,99.9
2023-09-14T18:53:22.427Z,99.9
2023-09-14T18:55:28.521Z,99.9
2023-09-14T18:57:31.545Z,99.9
2023-09-14T18:59:34.839Z,99.9
2023-09-14T19:01:37.569Z,99.9
2023-09-14T19:03:40.602Z,99.9
2023-09-14T19:05:43.489Z,99.9
2023-09-14T19:07:46.501Z,99.9
2023-09-14T19:15:01.687Z,99.9
2023-09-14T19:17:04.720Z,99.9
2023-09-14T19:19:07.726Z,99.9
2023-09-14T19:21:10.668Z,99.9
2023-09-14T19:23:16.805Z,99.9
2023-09-14T19:25:19.761Z,99.9
2023-09-14T19:27:22.776Z,99.9
2023-09-14T19:29:25.766Z,99.9
2023-09-14T19:31:28.849Z,99.9
2023-09-14T19:33:31.796Z,99.9
2023-09-14T19:35:34.791Z,99.9
2023-09-14T19:37:40.928Z,99.9
2023-09-14T19:39:43.925Z,99.9
2023-09-14T19:41:46.938Z,99.9
2023-09-14T19:43:49.942Z,99.9
2023-09-14T19:45:53.000Z,99.9
2023-09-14T19:47:55.982Z,99.9
2023-09-14T19:49:58.941Z,99.9
2023-09-14T19:52:05.165Z,99.9
2023-09-14T19:54:08.083Z,99.9
2023-09-14T19:56:11.095Z,99.9
2023-09-14T19:58:14.113Z,99.9
2023-09-14T20:00:18.499Z,99.9
2023-09-14T20:02:20.145Z,99.9
2023-09-14T20:04:23.166Z,99.9
2023-09-14T20:06:29.261Z,99.9
2023-09-14T20:08:32.271Z,99.9
2023-09-14T20:10:35.276Z,99.9
2023-09-14T20:11:38.345Z,99.9
2023-09-14T20:15:44.494Z,99.9
2023-09-14T20:17:47.427Z,99.9
2023-09-14T20:19:53.675Z,99.9
2023-09-14T20:21:56.592Z,99.9
2023-09-14T20:23:59.578Z,99.9
2023-09-14T20:28:05.733Z,99.9
2023-09-14T20:30:10.550Z,99.9
2023-09-14T20:34:17.940Z,99.9
2023-09-14T20:36:20.809Z,99.9
2023-09-14T20:38:23.841Z,99.9
2023-09-14T20:40:26.864Z,99.9
2023-09-14T20:42:29.889Z,99.9
2023-09-14T20:44:32.887Z,99.9
2023-09-14T20:46:35.979Z,99.9
2023-09-14T20:48:43.676Z,99.9
2023-09-14T20:50:46.600Z,99.9
2023-09-14T20:56:55.661Z,99.9
2023-09-14T20:58:58.702Z,99.9
2023-09-14T21:03:07.897Z,99.9
2023-09-14T21:05:10.916Z,99.9
2023-09-14T21:07:13.962Z,99.9
2023-09-14T21:09:43.432Z,99.9
2023-09-14T21:11:46.476Z,99.9
2023-09-14T21:15:55.697Z,99.9
2023-09-14T21:17:58.676Z,99.9
2023-09-14T21:22:04.705Z,99.9
2023-09-14T21:26:10.780Z,99.9
2023-09-14T21:28:13.798Z,99.9
2023-09-14T21:30:19.910Z,99.9
2023-09-14T21:34:25.951Z,99.9
2023-09-14T21:36:28.979Z,99.9
2023-09-14T21:38:31.986Z,99.9
2023-09-14T21:40:34.998Z,99.9
2023-09-14T21:42:38.106Z,99.9
2023-09-14T21:44:44.215Z,99.9
2023-09-14T21:46:47.246Z,99.9
2023-09-14T21:48:50.601Z,99.9
2023-09-14T21:50:53.298Z,99.9
2023-09-14T21:52:56.302Z,99.9
2023-09-14T21:57:02.353Z,99.9
2023-09-14T21:59:08.490Z,99.9
2023-09-14T22:04:17.708Z,99.9
2023-09-14T22:06:24.738Z,99.9
2023-09-14T22:08:23.684Z,99.9
2023-09-14T22:10:26.691Z,99.9
2023-09-14T22:12:32.852Z,99.9
2023-09-14T22:14:35.882Z,99.9
2023-09-14T22:16:38.950Z,99.9
2023-09-14T22:18:42.051Z,99.9
2023-09-14T22:20:44.986Z,99.9
2023-09-14T22:24:50.999Z,99.9
2023-09-14T22:26:57.084Z,99.9
2023-09-14T22:33:06.493Z,99.9
2023-09-14T22:35:09.609Z,99.9
2023-09-14T22:37:12.771Z,99.9
2023-09-14T22:39:15.791Z,99.9
2023-09-14T22:41:22.118Z,99.9
2023-09-14T22:43:25.257Z,99.9
2023-09-14T22:45:28.380Z,99.9
2023-09-14T22:47:31.525Z,99.9
2023-09-14T22:49:34.636Z,99.9
2023-09-14T22:51:37.815Z,99.9
2023-09-14T22:53:40.899Z,99.9
2023-09-14T22:55:47.144Z,99.9
2023-09-14T22:57:50.297Z,99.9
2023-09-14T22:59:53.401Z,99.9
2023-09-14T23:00:56.646Z,99.9
2023-09-14T23:02:59.716Z,99.9
2023-09-14T23:05:02.829Z,99.9
2023-09-14T23:07:05.985Z,99.9
2023-09-14T23:09:12.278Z,99.9
2023-09-14T23:13:18.598Z,99.9
2023-09-14T23:17:24.807Z,99.9
2023-09-14T23:19:28.005Z,99.9
2023-09-14T23:23:37.430Z,99.9
2023-09-14T23:25:40.546Z,99.9
2023-09-14T23:27:43.676Z,99.9
2023-09-14T23:31:50.226Z,99.9
2023-09-14T23:33:53.132Z,99.9
2023-09-14T23:35:56.169Z,99.9
2023-09-14T23:57:37.070Z,99.9
2023-09-14T23:59:40.217Z,99.9
